sensor_id;sensor_type;location;lat;lon;timestamp;P1;durP1;ratioP1;P2;durP2;ratioP2
65358;SDS011;52491;45.900;6.346;2024-03-02T00:00:36;4.63;;;3.90;;
65358;SDS011;52491;45.900;6.346;2024-03-02T00:03:02;5.25;;;3.45;;
65358;SDS011;52491;45.900;6.346;2024-03-02T00:05:28;5.10;;;2.80;;
65358;SDS011;52491;45.900;6.346;2024-03-02T00:07:57;3.58;;;3.13;;
65358;SDS011;52491;45.900;6.346;2024-03-02T00:10:25;5.65;;;3.22;;
65358;SDS011;52491;45.900;6.346;2024-03-02T00:12:55;3.42;;;2.92;;
65358;SDS011;52491;45.900;6.346;2024-03-02T00:15:30;6.03;;;3.40;;
65358;SDS011;52491;45.900;6.346;2024-03-02T00:18:12;5.82;;;3.55;;
65358;SDS011;52491;45.900;6.346;2024-03-02T00:20:39;4.00;;;2.88;;
65358;SDS011;52491;45.900;6.346;2024-03-02T00:23:06;5.88;;;3.03;;
65358;SDS011;52491;45.900;6.346;2024-03-02T00:28:00;4.43;;;3.35;;
65358;SDS011;52491;45.900;6.346;2024-03-02T00:30:37;4.15;;;2.75;;
65358;SDS011;52491;45.900;6.346;2024-03-02T00:33:16;5.55;;;2.88;;
65358;SDS011;52491;45.900;6.346;2024-03-02T00:35:44;3.95;;;3.20;;
65358;SDS011;52491;45.900;6.346;2024-03-02T00:38:10;5.63;;;3.25;;
65358;SDS011;52491;45.900;6.346;2024-03-02T00:40:36;2.88;;;2.60;;
65358;SDS011;52491;45.900;6.346;2024-03-02T00:43:02;3.45;;;2.97;;
65358;SDS011;52491;45.900;6.346;2024-03-02T00:45:28;5.65;;;2.83;;
65358;SDS011;52491;45.900;6.346;2024-03-02T00:47:55;3.60;;;2.88;;
65358;SDS011;52491;45.900;6.346;2024-03-02T00:50:21;3.70;;;3.03;;
65358;SDS011;52491;45.900;6.346;2024-03-02T00:52:46;3.63;;;2.90;;
65358;SDS011;52491;45.900;6.346;2024-03-02T00:55:13;5.22;;;2.83;;
65358;SDS011;52491;45.900;6.346;2024-03-02T00:57:39;2.80;;;2.47;;
65358;SDS011;52491;45.900;6.346;2024-03-02T01:00:06;4.50;;;2.85;;
65358;SDS011;52491;45.900;6.346;2024-03-02T01:02:35;4.07;;;2.97;;
65358;SDS011;52491;45.900;6.346;2024-03-02T01:05:01;3.83;;;3.05;;
65358;SDS011;52491;45.900;6.346;2024-03-02T01:07:26;4.07;;;2.55;;
65358;SDS011;52491;45.900;6.346;2024-03-02T01:09:52;3.53;;;2.90;;
65358;SDS011;52491;45.900;6.346;2024-03-02T01:12:18;2.88;;;2.58;;
65358;SDS011;52491;45.900;6.346;2024-03-02T01:14:43;3.33;;;2.88;;
65358;SDS011;52491;45.900;6.346;2024-03-02T01:17:09;3.97;;;3.25;;
65358;SDS011;52491;45.900;6.346;2024-03-02T01:19:35;3.85;;;2.97;;
65358;SDS011;52491;45.900;6.346;2024-03-02T01:22:00;3.83;;;2.88;;
65358;SDS011;52491;45.900;6.346;2024-03-02T01:24:26;3.38;;;2.70;;
65358;SDS011;52491;45.900;6.346;2024-03-02T01:26:52;3.60;;;2.55;;
65358;SDS011;52491;45.900;6.346;2024-03-02T01:29:17;3.20;;;2.70;;
65358;SDS011;52491;45.900;6.346;2024-03-02T01:31:43;3.78;;;2.60;;
65358;SDS011;52491;45.900;6.346;2024-03-02T01:34:08;2.92;;;2.42;;
65358;SDS011;52491;45.900;6.346;2024-03-02T01:36:34;3.60;;;2.30;;
65358;SDS011;52491;45.900;6.346;2024-03-02T01:39:00;3.17;;;2.33;;
65358;SDS011;52491;45.900;6.346;2024-03-02T01:41:26;1.98;;;1.77;;
65358;SDS011;52491;45.900;6.346;2024-03-02T01:43:52;3.38;;;1.95;;
65358;SDS011;52491;45.900;6.346;2024-03-02T01:46:18;3.85;;;2.10;;
65358;SDS011;52491;45.900;6.346;2024-03-02T01:48:46;2.22;;;2.00;;
65358;SDS011;52491;45.900;6.346;2024-03-02T01:51:13;2.90;;;2.45;;
65358;SDS011;52491;45.900;6.346;2024-03-02T01:53:38;2.25;;;1.85;;
65358;SDS011;52491;45.900;6.346;2024-03-02T01:56:04;3.17;;;2.47;;
65358;SDS011;52491;45.900;6.346;2024-03-02T01:58:30;2.85;;;2.00;;
65358;SDS011;52491;45.900;6.346;2024-03-02T02:00:56;3.30;;;2.67;;
65358;SDS011;52491;45.900;6.346;2024-03-02T02:03:21;2.40;;;1.80;;
65358;SDS011;52491;45.900;6.346;2024-03-02T02:05:50;3.20;;;2.40;;
65358;SDS011;52491;45.900;6.346;2024-03-02T02:08:16;3.30;;;2.33;;
65358;SDS011;52491;45.900;6.346;2024-03-02T02:10:41;2.22;;;1.75;;
65358;SDS011;52491;45.900;6.346;2024-03-02T02:13:07;3.08;;;2.33;;
65358;SDS011;52491;45.900;6.346;2024-03-02T02:15:33;2.50;;;1.95;;
65358;SDS011;52491;45.900;6.346;2024-03-02T02:18:01;4.00;;;2.65;;
65358;SDS011;52491;45.900;6.346;2024-03-02T02:20:27;2.92;;;2.28;;
65358;SDS011;52491;45.900;6.346;2024-03-02T02:22:54;2.88;;;2.28;;
65358;SDS011;52491;45.900;6.346;2024-03-02T02:25:21;2.50;;;2.00;;
65358;SDS011;52491;45.900;6.346;2024-03-02T02:27:46;3.42;;;2.10;;
65358;SDS011;52491;45.900;6.346;2024-03-02T02:30:12;4.10;;;2.13;;
65358;SDS011;52491;45.900;6.346;2024-03-02T02:32:38;2.55;;;2.05;;
65358;SDS011;52491;45.900;6.346;2024-03-02T02:35:04;2.55;;;2.10;;
65358;SDS011;52491;45.900;6.346;2024-03-02T02:37:30;2.00;;;1.63;;
65358;SDS011;52491;45.900;6.346;2024-03-02T02:39:56;3.45;;;2.28;;
65358;SDS011;52491;45.900;6.346;2024-03-02T02:42:21;2.47;;;2.05;;
65358;SDS011;52491;45.900;6.346;2024-03-02T02:44:47;1.75;;;1.50;;
65358;SDS011;52491;45.900;6.346;2024-03-02T02:47:13;2.65;;;1.67;;
65358;SDS011;52491;45.900;6.346;2024-03-02T02:49:38;2.53;;;2.28;;
65358;SDS011;52491;45.900;6.346;2024-03-02T02:52:04;2.30;;;1.60;;
65358;SDS011;52491;45.900;6.346;2024-03-02T02:54:30;2.15;;;1.90;;
65358;SDS011;52491;45.900;6.346;2024-03-02T02:56:56;2.00;;;1.42;;
65358;SDS011;52491;45.900;6.346;2024-03-02T02:59:21;2.33;;;1.65;;
65358;SDS011;52491;45.900;6.346;2024-03-02T03:01:47;3.55;;;2.05;;
65358;SDS011;52491;45.900;6.346;2024-03-02T03:04:12;3.15;;;1.45;;
65358;SDS011;52491;45.900;6.346;2024-03-02T03:06:38;2.55;;;1.92;;
65358;SDS011;52491;45.900;6.346;2024-03-02T03:09:04;1.58;;;1.30;;
65358;SDS011;52491;45.900;6.346;2024-03-02T03:11:29;2.38;;;1.92;;
65358;SDS011;52491;45.900;6.346;2024-03-02T03:13:55;1.63;;;1.48;;
65358;SDS011;52491;45.900;6.346;2024-03-02T03:16:21;2.55;;;1.95;;
65358;SDS011;52491;45.900;6.346;2024-03-02T03:18:46;1.88;;;1.40;;
65358;SDS011;52491;45.900;6.346;2024-03-02T03:21:12;1.63;;;1.38;;
65358;SDS011;52491;45.900;6.346;2024-03-02T03:23:38;1.40;;;1.30;;
65358;SDS011;52491;45.900;6.346;2024-03-02T03:26:03;1.70;;;1.23;;
65358;SDS011;52491;45.900;6.346;2024-03-02T03:28:35;3.47;;;1.33;;
65358;SDS011;52491;45.900;6.346;2024-03-02T03:31:01;1.63;;;1.42;;
65358;SDS011;52491;45.900;6.346;2024-03-02T03:33:27;2.03;;;1.23;;
65358;SDS011;52491;45.900;6.346;2024-03-02T03:35:53;1.40;;;1.20;;
65358;SDS011;52491;45.900;6.346;2024-03-02T03:38:18;2.00;;;1.40;;
65358;SDS011;52491;45.900;6.346;2024-03-02T03:40:44;1.90;;;1.42;;
65358;SDS011;52491;45.900;6.346;2024-03-02T03:43:10;2.22;;;1.55;;
65358;SDS011;52491;45.900;6.346;2024-03-02T03:45:36;3.83;;;1.30;;
65358;SDS011;52491;45.900;6.346;2024-03-02T03:48:02;1.50;;;1.40;;
65358;SDS011;52491;45.900;6.346;2024-03-02T03:50:28;1.95;;;1.27;;
65358;SDS011;52491;45.900;6.346;2024-03-02T03:52:53;3.05;;;1.00;;
65358;SDS011;52491;45.900;6.346;2024-03-02T03:55:19;1.98;;;1.50;;
65358;SDS011;52491;45.900;6.346;2024-03-02T03:57:45;2.30;;;1.45;;
65358;SDS011;52491;45.900;6.346;2024-03-02T04:00:10;1.13;;;1.00;;
65358;SDS011;52491;45.900;6.346;2024-03-02T04:02:37;1.77;;;1.40;;
65358;SDS011;52491;45.900;6.346;2024-03-02T04:05:03;1.55;;;1.40;;
65358;SDS011;52491;45.900;6.346;2024-03-02T04:07:34;1.42;;;0.90;;
65358;SDS011;52491;45.900;6.346;2024-03-02T04:10:06;2.83;;;1.48;;
65358;SDS011;52491;45.900;6.346;2024-03-02T04:12:33;1.40;;;1.30;;
65358;SDS011;52491;45.900;6.346;2024-03-02T04:15:00;2.28;;;1.15;;
65358;SDS011;52491;45.900;6.346;2024-03-02T04:17:27;1.23;;;0.98;;
65358;SDS011;52491;45.900;6.346;2024-03-02T04:19:52;1.30;;;1.20;;
65358;SDS011;52491;45.900;6.346;2024-03-02T04:22:18;1.67;;;1.15;;
65358;SDS011;52491;45.900;6.346;2024-03-02T04:24:44;2.13;;;1.40;;
65358;SDS011;52491;45.900;6.346;2024-03-02T04:27:09;1.33;;;1.00;;
65358;SDS011;52491;45.900;6.346;2024-03-02T04:29:35;2.05;;;1.23;;
65358;SDS011;52491;45.900;6.346;2024-03-02T04:32:01;1.65;;;1.05;;
65358;SDS011;52491;45.900;6.346;2024-03-02T04:34:26;3.58;;;1.63;;
65358;SDS011;52491;45.900;6.346;2024-03-02T04:36:52;1.67;;;1.23;;
65358;SDS011;52491;45.900;6.346;2024-03-02T04:39:18;1.98;;;1.30;;
65358;SDS011;52491;45.900;6.346;2024-03-02T04:41:44;1.42;;;0.85;;
65358;SDS011;52491;45.900;6.346;2024-03-02T04:44:10;1.65;;;1.05;;
65358;SDS011;52491;45.900;6.346;2024-03-02T04:46:35;4.88;;;1.52;;
65358;SDS011;52491;45.900;6.346;2024-03-02T04:49:01;1.10;;;1.00;;
65358;SDS011;52491;45.900;6.346;2024-03-02T04:51:26;1.00;;;0.90;;
65358;SDS011;52491;45.900;6.346;2024-03-02T04:53:52;1.48;;;1.30;;
65358;SDS011;52491;45.900;6.346;2024-03-02T04:56:18;1.67;;;1.10;;
65358;SDS011;52491;45.900;6.346;2024-03-02T04:58:44;1.02;;;0.90;;
65358;SDS011;52491;45.900;6.346;2024-03-02T05:01:10;2.20;;;1.20;;
65358;SDS011;52491;45.900;6.346;2024-03-02T05:03:35;1.50;;;1.20;;
65358;SDS011;52491;45.900;6.346;2024-03-02T05:06:01;1.60;;;1.25;;
65358;SDS011;52491;45.900;6.346;2024-03-02T05:08:27;1.83;;;1.05;;
65358;SDS011;52491;45.900;6.346;2024-03-02T05:10:52;1.50;;;1.17;;
65358;SDS011;52491;45.900;6.346;2024-03-02T05:13:18;0.95;;;0.90;;
65358;SDS011;52491;45.900;6.346;2024-03-02T05:15:46;1.60;;;1.00;;
65358;SDS011;52491;45.900;6.346;2024-03-02T05:18:11;2.15;;;1.25;;
65358;SDS011;52491;45.900;6.346;2024-03-02T05:20:37;1.63;;;1.13;;
65358;SDS011;52491;45.900;6.346;2024-03-02T05:23:03;2.30;;;1.10;;
65358;SDS011;52491;45.900;6.346;2024-03-02T05:25:28;1.63;;;1.08;;
65358;SDS011;52491;45.900;6.346;2024-03-02T05:27:54;2.55;;;1.05;;
65358;SDS011;52491;45.900;6.346;2024-03-02T05:30:19;1.27;;;0.98;;
65358;SDS011;52491;45.900;6.346;2024-03-02T05:32:45;0.80;;;0.77;;
65358;SDS011;52491;45.900;6.346;2024-03-02T05:35:11;0.75;;;0.73;;
65358;SDS011;52491;45.900;6.346;2024-03-02T05:37:37;1.20;;;1.10;;
65358;SDS011;52491;45.900;6.346;2024-03-02T05:40:04;0.95;;;0.73;;
65358;SDS011;52491;45.900;6.346;2024-03-02T05:42:30;1.98;;;0.88;;
65358;SDS011;52491;45.900;6.346;2024-03-02T05:44:56;2.40;;;0.93;;
65358;SDS011;52491;45.900;6.346;2024-03-02T05:47:22;1.38;;;1.08;;
65358;SDS011;52491;45.900;6.346;2024-03-02T05:49:47;1.35;;;0.95;;
65358;SDS011;52491;45.900;6.346;2024-03-02T05:52:13;1.02;;;0.93;;
65358;SDS011;52491;45.900;6.346;2024-03-02T05:54:38;1.25;;;0.90;;
65358;SDS011;52491;45.900;6.346;2024-03-02T05:57:04;1.17;;;1.08;;
65358;SDS011;52491;45.900;6.346;2024-03-02T05:59:31;0.88;;;0.85;;
65358;SDS011;52491;45.900;6.346;2024-03-02T06:01:56;2.33;;;1.10;;
65358;SDS011;52491;45.900;6.346;2024-03-02T06:04:22;1.00;;;0.80;;
65358;SDS011;52491;45.900;6.346;2024-03-02T06:06:47;1.35;;;0.82;;
65358;SDS011;52491;45.900;6.346;2024-03-02T06:09:14;0.80;;;0.80;;
65358;SDS011;52491;45.900;6.346;2024-03-02T06:11:41;1.27;;;1.05;;
65358;SDS011;52491;45.900;6.346;2024-03-02T06:14:07;1.13;;;0.95;;
65358;SDS011;52491;45.900;6.346;2024-03-02T06:16:34;1.58;;;1.08;;
65358;SDS011;52491;45.900;6.346;2024-03-02T06:19:00;0.93;;;0.80;;
65358;SDS011;52491;45.900;6.346;2024-03-02T06:21:26;0.90;;;0.75;;
65358;SDS011;52491;45.900;6.346;2024-03-02T06:23:52;0.82;;;0.82;;
65358;SDS011;52491;45.900;6.346;2024-03-02T06:26:18;0.80;;;0.73;;
65358;SDS011;52491;45.900;6.346;2024-03-02T06:28:44;1.25;;;0.80;;
65358;SDS011;52491;45.900;6.346;2024-03-02T06:31:11;1.55;;;0.90;;
65358;SDS011;52491;45.900;6.346;2024-03-02T06:33:37;1.25;;;0.80;;
65358;SDS011;52491;45.900;6.346;2024-03-02T06:36:03;1.88;;;0.90;;
65358;SDS011;52491;45.900;6.346;2024-03-02T06:38:29;1.27;;;1.10;;
65358;SDS011;52491;45.900;6.346;2024-03-02T06:40:57;0.65;;;0.63;;
65358;SDS011;52491;45.900;6.346;2024-03-02T06:43:23;1.60;;;0.82;;
65358;SDS011;52491;45.900;6.346;2024-03-02T06:45:50;0.77;;;0.63;;
65358;SDS011;52491;45.900;6.346;2024-03-02T06:48:16;2.20;;;0.98;;
65358;SDS011;52491;45.900;6.346;2024-03-02T06:50:46;0.80;;;0.80;;
65358;SDS011;52491;45.900;6.346;2024-03-02T06:53:13;1.10;;;0.95;;
65358;SDS011;52491;45.900;6.346;2024-03-02T06:55:39;0.50;;;0.50;;
65358;SDS011;52491;45.900;6.346;2024-03-02T06:58:05;0.73;;;0.70;;
65358;SDS011;52491;45.900;6.346;2024-03-02T07:00:30;1.83;;;0.93;;
65358;SDS011;52491;45.900;6.346;2024-03-02T07:02:56;1.13;;;0.98;;
65358;SDS011;52491;45.900;6.346;2024-03-02T07:05:22;2.60;;;1.23;;
65358;SDS011;52491;45.900;6.346;2024-03-02T07:07:47;1.17;;;0.75;;
65358;SDS011;52491;45.900;6.346;2024-03-02T07:10:13;1.48;;;1.15;;
65358;SDS011;52491;45.900;6.346;2024-03-02T07:12:39;0.93;;;0.80;;
65358;SDS011;52491;45.900;6.346;2024-03-02T07:15:05;1.55;;;0.70;;
65358;SDS011;52491;45.900;6.346;2024-03-02T07:17:31;2.60;;;0.77;;
65358;SDS011;52491;45.900;6.346;2024-03-02T07:19:57;1.00;;;0.70;;
65358;SDS011;52491;45.900;6.346;2024-03-02T07:22:23;0.50;;;0.50;;
65358;SDS011;52491;45.900;6.346;2024-03-02T07:24:49;1.00;;;0.90;;
65358;SDS011;52491;45.900;6.346;2024-03-02T07:27:16;3.10;;;1.55;;
65358;SDS011;52491;45.900;6.346;2024-03-02T07:29:42;1.58;;;0.73;;
65358;SDS011;52491;45.900;6.346;2024-03-02T07:32:09;0.88;;;0.82;;
65358;SDS011;52491;45.900;6.346;2024-03-02T07:34:36;0.70;;;0.70;;
65358;SDS011;52491;45.900;6.346;2024-03-02T07:37:02;1.10;;;1.00;;
65358;SDS011;52491;45.900;6.346;2024-03-02T07:39:29;1.08;;;0.93;;
65358;SDS011;52491;45.900;6.346;2024-03-02T07:41:55;1.40;;;1.10;;
65358;SDS011;52491;45.900;6.346;2024-03-02T07:44:21;1.98;;;0.90;;
65358;SDS011;52491;45.900;6.346;2024-03-02T07:46:48;0.98;;;0.80;;
65358;SDS011;52491;45.900;6.346;2024-03-02T07:49:14;2.25;;;1.05;;
65358;SDS011;52491;45.900;6.346;2024-03-02T07:51:40;2.45;;;0.82;;
65358;SDS011;52491;45.900;6.346;2024-03-02T07:54:06;1.10;;;1.00;;
65358;SDS011;52491;45.900;6.346;2024-03-02T07:56:32;3.42;;;1.27;;
65358;SDS011;52491;45.900;6.346;2024-03-02T07:58:58;1.75;;;0.93;;
65358;SDS011;52491;45.900;6.346;2024-03-02T08:01:27;4.35;;;1.05;;
65358;SDS011;52491;45.900;6.346;2024-03-02T08:03:59;2.35;;;1.48;;
65358;SDS011;52491;45.900;6.346;2024-03-02T08:06:26;5.45;;;1.60;;
65358;SDS011;52491;45.900;6.346;2024-03-02T08:08:54;6.63;;;1.90;;
65358;SDS011;52491;45.900;6.346;2024-03-02T08:11:21;2.22;;;1.60;;
65358;SDS011;52491;45.900;6.346;2024-03-02T08:13:47;2.70;;;1.85;;
65358;SDS011;52491;45.900;6.346;2024-03-02T08:16:14;6.80;;;1.80;;
65358;SDS011;52491;45.900;6.346;2024-03-02T08:18:41;10.07;;;2.50;;
65358;SDS011;52491;45.900;6.346;2024-03-02T08:21:07;1.80;;;1.33;;
65358;SDS011;52491;45.900;6.346;2024-03-02T08:23:33;24.25;;;2.20;;
65358;SDS011;52491;45.900;6.346;2024-03-02T08:26:00;4.25;;;1.48;;
65358;SDS011;52491;45.900;6.346;2024-03-02T08:28:25;8.88;;;1.73;;
65358;SDS011;52491;45.900;6.346;2024-03-02T08:30:51;3.95;;;2.00;;
65358;SDS011;52491;45.900;6.346;2024-03-02T08:33:16;5.03;;;1.83;;
65358;SDS011;52491;45.900;6.346;2024-03-02T08:35:42;9.70;;;2.30;;
65358;SDS011;52491;45.900;6.346;2024-03-02T08:38:08;5.57;;;1.95;;
65358;SDS011;52491;45.900;6.346;2024-03-02T08:40:34;2.42;;;1.63;;
65358;SDS011;52491;45.900;6.346;2024-03-02T08:43:02;19.30;;;1.73;;
65358;SDS011;52491;45.900;6.346;2024-03-02T08:45:28;2.08;;;1.50;;
65358;SDS011;52491;45.900;6.346;2024-03-02T08:47:54;17.23;;;1.73;;
65358;SDS011;52491;45.900;6.346;2024-03-02T08:50:19;2.63;;;1.23;;
65358;SDS011;52491;45.900;6.346;2024-03-02T08:52:45;7.55;;;1.63;;
65358;SDS011;52491;45.900;6.346;2024-03-02T08:55:11;4.20;;;1.60;;
65358;SDS011;52491;45.900;6.346;2024-03-02T08:57:36;7.40;;;1.98;;
65358;SDS011;52491;45.900;6.346;2024-03-02T09:00:02;5.47;;;1.52;;
65358;SDS011;52491;45.900;6.346;2024-03-02T09:02:30;5.75;;;1.77;;
65358;SDS011;52491;45.900;6.346;2024-03-02T09:04:56;5.07;;;1.48;;
65358;SDS011;52491;45.900;6.346;2024-03-02T09:07:22;4.53;;;1.42;;
65358;SDS011;52491;45.900;6.346;2024-03-02T09:09:48;17.65;;;1.90;;
65358;SDS011;52491;45.900;6.346;2024-03-02T09:12:13;13.55;;;1.73;;
65358;SDS011;52491;45.900;6.346;2024-03-02T09:14:40;7.28;;;2.03;;
65358;SDS011;52491;45.900;6.346;2024-03-02T09:17:06;13.38;;;1.90;;
65358;SDS011;52491;45.900;6.346;2024-03-02T09:19:31;9.77;;;2.28;;
65358;SDS011;52491;45.900;6.346;2024-03-02T09:21:57;12.35;;;2.25;;
65358;SDS011;52491;45.900;6.346;2024-03-02T09:24:24;18.48;;;2.53;;
65358;SDS011;52491;45.900;6.346;2024-03-02T09:26:49;6.00;;;1.75;;
65358;SDS011;52491;45.900;6.346;2024-03-02T09:29:15;8.30;;;2.05;;
65358;SDS011;52491;45.900;6.346;2024-03-02T09:31:41;5.00;;;1.38;;
65358;SDS011;52491;45.900;6.346;2024-03-02T09:34:07;8.15;;;1.45;;
65358;SDS011;52491;45.900;6.346;2024-03-02T09:36:33;9.70;;;1.50;;
65358;SDS011;52491;45.900;6.346;2024-03-02T09:38:58;5.97;;;1.35;;
65358;SDS011;52491;45.900;6.346;2024-03-02T09:41:24;2.15;;;1.45;;
65358;SDS011;52491;45.900;6.346;2024-03-02T09:43:50;3.58;;;1.05;;
65358;SDS011;52491;45.900;6.346;2024-03-02T09:46:16;2.70;;;1.27;;
65358;SDS011;52491;45.900;6.346;2024-03-02T09:48:41;3.70;;;1.02;;
65358;SDS011;52491;45.900;6.346;2024-03-02T09:51:10;2.30;;;1.17;;
65358;SDS011;52491;45.900;6.346;2024-03-02T09:53:36;2.38;;;1.65;;
65358;SDS011;52491;45.900;6.346;2024-03-02T09:56:02;8.98;;;1.35;;
65358;SDS011;52491;45.900;6.346;2024-03-02T09:58:30;5.13;;;1.00;;
65358;SDS011;52491;45.900;6.346;2024-03-02T10:00:56;6.38;;;1.20;;
65358;SDS011;52491;45.900;6.346;2024-03-02T10:03:22;4.88;;;1.20;;
65358;SDS011;52491;45.900;6.346;2024-03-02T10:05:49;2.33;;;1.10;;
65358;SDS011;52491;45.900;6.346;2024-03-02T10:08:15;3.33;;;1.75;;
65358;SDS011;52491;45.900;6.346;2024-03-02T10:10:41;1.50;;;0.80;;
65358;SDS011;52491;45.900;6.346;2024-03-02T10:13:08;2.15;;;1.52;;
65358;SDS011;52491;45.900;6.346;2024-03-02T10:15:35;2.30;;;0.90;;
65358;SDS011;52491;45.900;6.346;2024-03-02T10:18:03;3.47;;;1.10;;
65358;SDS011;52491;45.900;6.346;2024-03-02T10:20:29;5.40;;;1.20;;
65358;SDS011;52491;45.900;6.346;2024-03-02T10:22:56;3.72;;;1.08;;
65358;SDS011;52491;45.900;6.346;2024-03-02T10:25:36;3.00;;;1.10;;
65358;SDS011;52491;45.900;6.346;2024-03-02T10:28:02;1.38;;;1.00;;
65358;SDS011;52491;45.900;6.346;2024-03-02T10:30:31;2.42;;;1.15;;
65358;SDS011;52491;45.900;6.346;2024-03-02T10:32:57;4.00;;;1.25;;
65358;SDS011;52491;45.900;6.346;2024-03-02T10:35:23;2.20;;;1.10;;
65358;SDS011;52491;45.900;6.346;2024-03-02T10:37:49;2.15;;;1.00;;
65358;SDS011;52491;45.900;6.346;2024-03-02T10:40:15;2.28;;;1.08;;
65358;SDS011;52491;45.900;6.346;2024-03-02T10:42:42;2.67;;;0.90;;
65358;SDS011;52491;45.900;6.346;2024-03-02T10:45:09;1.30;;;1.10;;
65358;SDS011;52491;45.900;6.346;2024-03-02T10:47:36;5.32;;;1.00;;
65358;SDS011;52491;45.900;6.346;2024-03-02T10:50:04;1.63;;;1.00;;
65358;SDS011;52491;45.900;6.346;2024-03-02T10:52:34;2.33;;;0.98;;
65358;SDS011;52491;45.900;6.346;2024-03-02T10:55:01;1.50;;;1.13;;
65358;SDS011;52491;45.900;6.346;2024-03-02T10:57:33;2.90;;;0.90;;
65358;SDS011;52491;45.900;6.346;2024-03-02T11:00:04;2.28;;;0.80;;
65358;SDS011;52491;45.900;6.346;2024-03-02T11:02:31;1.83;;;0.77;;
65358;SDS011;52491;45.900;6.346;2024-03-02T11:04:59;2.70;;;1.02;;
65358;SDS011;52491;45.900;6.346;2024-03-02T11:07:31;2.03;;;1.00;;
65358;SDS011;52491;45.900;6.346;2024-03-02T11:09:59;1.33;;;1.05;;
65358;SDS011;52491;45.900;6.346;2024-03-02T11:12:28;1.63;;;0.90;;
65358;SDS011;52491;45.900;6.346;2024-03-02T11:14:56;2.72;;;0.93;;
65358;SDS011;52491;45.900;6.346;2024-03-02T11:17:21;2.83;;;0.80;;
65358;SDS011;52491;45.900;6.346;2024-03-02T11:19:49;2.33;;;1.08;;
65358;SDS011;52491;45.900;6.346;2024-03-02T11:22:15;1.38;;;0.75;;
65358;SDS011;52491;45.900;6.346;2024-03-02T11:24:54;2.88;;;0.95;;
65358;SDS011;52491;45.900;6.346;2024-03-02T11:29:46;1.77;;;0.80;;
65358;SDS011;52491;45.900;6.346;2024-03-02T11:32:13;5.28;;;1.25;;
65358;SDS011;52491;45.900;6.346;2024-03-02T11:34:41;2.17;;;0.60;;
65358;SDS011;52491;45.900;6.346;2024-03-02T11:37:10;1.50;;;0.80;;
65358;SDS011;52491;45.900;6.346;2024-03-02T11:39:37;1.30;;;0.85;;
65358;SDS011;52491;45.900;6.346;2024-03-02T11:42:07;1.40;;;0.80;;
65358;SDS011;52491;45.900;6.346;2024-03-02T11:44:35;1.15;;;0.90;;
65358;SDS011;52491;45.900;6.346;2024-03-02T11:47:02;4.75;;;1.73;;
65358;SDS011;52491;45.900;6.346;2024-03-02T11:52:00;43.05;;;17.92;;
65358;SDS011;52491;45.900;6.346;2024-03-02T11:54:27;89.25;;;37.90;;
65358;SDS011;52491;45.900;6.346;2024-03-02T11:56:58;122.68;;;62.90;;
65358;SDS011;52491;45.900;6.346;2024-03-02T11:59:27;118.07;;;51.88;;
65358;SDS011;52491;45.900;6.346;2024-03-02T12:01:54;85.45;;;41.25;;
65358;SDS011;52491;45.900;6.346;2024-03-02T12:04:21;83.07;;;33.00;;
65358;SDS011;52491;45.900;6.346;2024-03-02T12:06:46;60.22;;;27.35;;
65358;SDS011;52491;45.900;6.346;2024-03-02T12:09:20;53.97;;;26.38;;
65358;SDS011;52491;45.900;6.346;2024-03-02T12:11:46;46.00;;;21.33;;
65358;SDS011;52491;45.900;6.346;2024-03-02T12:14:12;38.15;;;18.15;;
65358;SDS011;52491;45.900;6.346;2024-03-02T12:16:38;50.67;;;20.63;;
65358;SDS011;52491;45.900;6.346;2024-03-02T12:19:05;44.42;;;23.40;;
65358;SDS011;52491;45.900;6.346;2024-03-02T12:21:31;40.83;;;21.33;;
65358;SDS011;52491;45.900;6.346;2024-03-02T12:23:57;46.42;;;23.42;;
65358;SDS011;52491;45.900;6.346;2024-03-02T12:26:23;45.13;;;21.85;;
65358;SDS011;52491;45.900;6.346;2024-03-02T12:28:49;41.15;;;20.63;;
65358;SDS011;52491;45.900;6.346;2024-03-02T12:31:15;45.17;;;20.40;;
65358;SDS011;52491;45.900;6.346;2024-03-02T12:33:41;45.80;;;20.90;;
65358;SDS011;52491;45.900;6.346;2024-03-02T12:38:34;35.78;;;18.58;;
65358;SDS011;52491;45.900;6.346;2024-03-02T12:41:03;42.65;;;18.92;;
65358;SDS011;52491;45.900;6.346;2024-03-02T12:43:31;31.10;;;17.23;;
65358;SDS011;52491;45.900;6.346;2024-03-02T12:45:57;32.22;;;16.83;;
65358;SDS011;52491;45.900;6.346;2024-03-02T12:48:23;34.92;;;16.92;;
65358;SDS011;52491;45.900;6.346;2024-03-02T12:50:49;31.05;;;15.82;;
65358;SDS011;52491;45.900;6.346;2024-03-02T12:53:15;39.92;;;17.15;;
65358;SDS011;52491;45.900;6.346;2024-03-02T12:55:41;36.67;;;16.77;;
65358;SDS011;52491;45.900;6.346;2024-03-02T13:00:36;33.83;;;15.38;;
65358;SDS011;52491;45.900;6.346;2024-03-02T13:03:02;11.88;;;6.57;;
65358;SDS011;52491;45.900;6.346;2024-03-02T13:07:55;27.10;;;12.05;;
65358;SDS011;52491;45.900;6.346;2024-03-02T13:10:21;23.83;;;11.90;;
65358;SDS011;52491;45.900;6.346;2024-03-02T13:12:47;29.77;;;12.23;;
65358;SDS011;52491;45.900;6.346;2024-03-02T13:15:16;30.30;;;12.23;;
65358;SDS011;52491;45.900;6.346;2024-03-02T13:17:42;18.75;;;10.25;;
65358;SDS011;52491;45.900;6.346;2024-03-02T13:20:07;21.92;;;10.57;;
65358;SDS011;52491;45.900;6.346;2024-03-02T13:22:35;32.20;;;11.43;;
65358;SDS011;52491;45.900;6.346;2024-03-02T13:25:01;26.17;;;11.65;;
65358;SDS011;52491;45.900;6.346;2024-03-02T13:27:29;31.13;;;11.48;;
65358;SDS011;52491;45.900;6.346;2024-03-02T13:29:57;18.00;;;9.45;;
65358;SDS011;52491;45.900;6.346;2024-03-02T13:32:22;25.65;;;9.75;;
65358;SDS011;52491;45.900;6.346;2024-03-02T13:34:49;23.95;;;10.73;;
65358;SDS011;52491;45.900;6.346;2024-03-02T13:37:15;15.88;;;5.90;;
65358;SDS011;52491;45.900;6.346;2024-03-02T13:39:41;17.83;;;5.82;;
65358;SDS011;52491;45.900;6.346;2024-03-02T13:42:08;20.33;;;7.38;;
65358;SDS011;52491;45.900;6.346;2024-03-02T13:44:36;14.13;;;6.63;;
65358;SDS011;52491;45.900;6.346;2024-03-02T13:47:02;12.80;;;5.97;;
65358;SDS011;52491;45.900;6.346;2024-03-02T13:49:28;16.20;;;5.80;;
65358;SDS011;52491;45.900;6.346;2024-03-02T13:51:59;12.40;;;5.00;;
65358;SDS011;52491;45.900;6.346;2024-03-02T13:54:28;8.45;;;4.45;;
65358;SDS011;52491;45.900;6.346;2024-03-02T13:56:55;10.30;;;5.18;;
65358;SDS011;52491;45.900;6.346;2024-03-02T13:59:23;8.30;;;4.10;;
65358;SDS011;52491;45.900;6.346;2024-03-02T14:01:48;10.50;;;5.18;;
65358;SDS011;52491;45.900;6.346;2024-03-02T14:04:15;11.43;;;5.97;;
65358;SDS011;52491;45.900;6.346;2024-03-02T14:06:40;10.07;;;5.10;;
65358;SDS011;52491;45.900;6.346;2024-03-02T14:09:08;5.20;;;2.58;;
65358;SDS011;52491;45.900;6.346;2024-03-02T14:11:34;10.13;;;4.05;;
65358;SDS011;52491;45.900;6.346;2024-03-02T14:14:01;7.25;;;3.45;;
65358;SDS011;52491;45.900;6.346;2024-03-02T14:16:27;5.60;;;3.67;;
65358;SDS011;52491;45.900;6.346;2024-03-02T14:18:53;8.98;;;3.20;;
65358;SDS011;52491;45.900;6.346;2024-03-02T14:21:19;6.88;;;3.45;;
65358;SDS011;52491;45.900;6.346;2024-03-02T14:23:44;7.20;;;3.28;;
65358;SDS011;52491;45.900;6.346;2024-03-02T14:26:10;7.15;;;2.83;;
65358;SDS011;52491;45.900;6.346;2024-03-02T14:28:35;7.70;;;3.20;;
65358;SDS011;52491;45.900;6.346;2024-03-02T14:31:01;3.35;;;2.55;;
65358;SDS011;52491;45.900;6.346;2024-03-02T14:33:27;5.93;;;3.00;;
65358;SDS011;52491;45.900;6.346;2024-03-02T14:35:53;9.63;;;3.70;;
65358;SDS011;52491;45.900;6.346;2024-03-02T14:38:19;7.00;;;2.95;;
65358;SDS011;52491;45.900;6.346;2024-03-02T14:40:45;12.52;;;3.58;;
65358;SDS011;52491;45.900;6.346;2024-03-02T14:43:11;5.50;;;3.13;;
65358;SDS011;52491;45.900;6.346;2024-03-02T14:45:36;8.43;;;3.72;;
65358;SDS011;52491;45.900;6.346;2024-03-02T14:48:02;8.13;;;3.30;;
65358;SDS011;52491;45.900;6.346;2024-03-02T14:50:29;9.63;;;3.17;;
65358;SDS011;52491;45.900;6.346;2024-03-02T14:52:54;8.35;;;3.65;;